sensor_id;sensor_type;location;lat;lon;timestamp;P1;durP1;ratioP1;P2;durP2;ratioP2
27796;SDS011;15177;50.844;4.412;2023-03-16T00:02:17;5.33;;;4.00;;
27796;SDS011;15177;50.844;4.412;2023-03-16T00:04:42;6.50;;;3.20;;
27796;SDS011;15177;50.844;4.412;2023-03-16T00:07:11;10.03;;;3.50;;
27796;SDS011;15177;50.844;4.412;2023-03-16T00:09:39;11.30;;;3.57;;
27796;SDS011;15177;50.844;4.412;2023-03-16T00:12:06;6.07;;;3.97;;
27796;SDS011;15177;50.844;4.412;2023-03-16T00:14:42;6.63;;;3.60;;
27796;SDS011;15177;50.844;4.412;2023-03-16T00:17:12;7.70;;;3.53;;
27796;SDS011;15177;50.844;4.412;2023-03-16T00:19:51;10.93;;;3.80;;
27796;SDS011;15177;50.844;4.412;2023-03-16T00:22:23;5.23;;;2.87;;
27796;SDS011;15177;50.844;4.412;2023-03-16T00:24:50;7.27;;;3.00;;
27796;SDS011;15177;50.844;4.412;2023-03-16T00:27:17;6.83;;;3.30;;
27796;SDS011;15177;50.844;4.412;2023-03-16T00:29:43;6.47;;;3.33;;
27796;SDS011;15177;50.844;4.412;2023-03-16T00:32:16;7.43;;;3.10;;
27796;SDS011;15177;50.844;4.412;2023-03-16T00:34:45;6.53;;;4.00;;
27796;SDS011;15177;50.844;4.412;2023-03-16T00:37:11;9.43;;;3.43;;
27796;SDS011;15177;50.844;4.412;2023-03-16T00:39:42;9.07;;;3.87;;
27796;SDS011;15177;50.844;4.412;2023-03-16T00:42:10;6.10;;;3.20;;
27796;SDS011;15177;50.844;4.412;2023-03-16T00:44:44;7.73;;;3.77;;
27796;SDS011;15177;50.844;4.412;2023-03-16T00:47:13;4.30;;;3.07;;
27796;SDS011;15177;50.844;4.412;2023-03-16T00:49:46;4.93;;;2.90;;
27796;SDS011;15177;50.844;4.412;2023-03-16T00:52:12;6.93;;;2.90;;
27796;SDS011;15177;50.844;4.412;2023-03-16T00:54:44;7.30;;;3.17;;
27796;SDS011;15177;50.844;4.412;2023-03-16T00:57:11;7.23;;;2.83;;
27796;SDS011;15177;50.844;4.412;2023-03-16T00:59:40;6.70;;;3.00;;
27796;SDS011;15177;50.844;4.412;2023-03-16T01:02:06;6.03;;;2.87;;
27796;SDS011;15177;50.844;4.412;2023-03-16T01:04:33;8.13;;;3.00;;
27796;SDS011;15177;50.844;4.412;2023-03-16T01:07:08;7.97;;;2.80;;
27796;SDS011;15177;50.844;4.412;2023-03-16T01:09:36;6.23;;;3.07;;
27796;SDS011;15177;50.844;4.412;2023-03-16T01:12:05;6.37;;;2.97;;
27796;SDS011;15177;50.844;4.412;2023-03-16T01:14:37;6.03;;;2.40;;
27796;SDS011;15177;50.844;4.412;2023-03-16T01:17:04;8.03;;;2.80;;
27796;SDS011;15177;50.844;4.412;2023-03-16T01:19:33;6.27;;;2.67;;
27796;SDS011;15177;50.844;4.412;2023-03-16T01:22:04;5.43;;;2.60;;
27796;SDS011;15177;50.844;4.412;2023-03-16T01:24:30;5.83;;;2.50;;
27796;SDS011;15177;50.844;4.412;2023-03-16T01:26:56;4.47;;;2.97;;
27796;SDS011;15177;50.844;4.412;2023-03-16T01:29:22;8.30;;;2.50;;
27796;SDS011;15177;50.844;4.412;2023-03-16T01:31:54;7.30;;;2.90;;
27796;SDS011;15177;50.844;4.412;2023-03-16T01:34:20;4.83;;;2.60;;
27796;SDS011;15177;50.844;4.412;2023-03-16T01:36:46;9.17;;;3.10;;
27796;SDS011;15177;50.844;4.412;2023-03-16T01:39:13;8.00;;;2.87;;
27796;SDS011;15177;50.844;4.412;2023-03-16T01:41:41;10.67;;;4.03;;
27796;SDS011;15177;50.844;4.412;2023-03-16T01:44:19;7.90;;;2.77;;
27796;SDS011;15177;50.844;4.412;2023-03-16T01:46:57;7.13;;;3.30;;
27796;SDS011;15177;50.844;4.412;2023-03-16T01:49:23;6.63;;;2.90;;
27796;SDS011;15177;50.844;4.412;2023-03-16T01:52:02;9.10;;;3.20;;
27796;SDS011;15177;50.844;4.412;2023-03-16T01:54:48;10.87;;;3.13;;
27796;SDS011;15177;50.844;4.412;2023-03-16T01:57:16;10.60;;;3.20;;
27796;SDS011;15177;50.844;4.412;2023-03-16T01:59:50;11.23;;;3.80;;
27796;SDS011;15177;50.844;4.412;2023-03-16T02:02:20;4.93;;;2.97;;
27796;SDS011;15177;50.844;4.412;2023-03-16T02:04:53;5.37;;;3.00;;
27796;SDS011;15177;50.844;4.412;2023-03-16T02:07:21;5.03;;;2.90;;
27796;SDS011;15177;50.844;4.412;2023-03-16T02:09:50;4.97;;;2.73;;
27796;SDS011;15177;50.844;4.412;2023-03-16T02:12:20;5.13;;;2.67;;
27796;SDS011;15177;50.844;4.412;2023-03-16T02:14:47;5.27;;;2.87;;
27796;SDS011;15177;50.844;4.412;2023-03-16T02:17:21;6.83;;;3.03;;
27796;SDS011;15177;50.844;4.412;2023-03-16T02:20:05;10.77;;;3.23;;
27796;SDS011;15177;50.844;4.412;2023-03-16T02:22:51;6.27;;;3.40;;
27796;SDS011;15177;50.844;4.412;2023-03-16T02:25:18;7.07;;;2.40;;
27796;SDS011;15177;50.844;4.412;2023-03-16T02:27:51;9.40;;;3.00;;
27796;SDS011;15177;50.844;4.412;2023-03-16T02:30:25;7.77;;;2.80;;
27796;SDS011;15177;50.844;4.412;2023-03-16T02:32:51;6.97;;;2.60;;
27796;SDS011;15177;50.844;4.412;2023-03-16T02:35:18;6.20;;;2.90;;
27796;SDS011;15177;50.844;4.412;2023-03-16T02:37:48;7.10;;;2.53;;
27796;SDS011;15177;50.844;4.412;2023-03-16T02:43:04;10.97;;;3.37;;
27796;SDS011;15177;50.844;4.412;2023-03-16T02:51:02;5.17;;;2.90;;
27796;SDS011;15177;50.844;4.412;2023-03-16T02:53:28;5.90;;;2.37;;
27796;SDS011;15177;50.844;4.412;2023-03-16T02:55:54;11.87;;;2.00;;
27796;SDS011;15177;50.844;4.412;2023-03-16T02:58:20;9.00;;;2.60;;
27796;SDS011;15177;50.844;4.412;2023-03-16T03:00:53;7.27;;;2.80;;
27796;SDS011;15177;50.844;4.412;2023-03-16T03:03:18;5.00;;;2.10;;
27796;SDS011;15177;50.844;4.412;2023-03-16T03:05:44;11.83;;;2.90;;
27796;SDS011;15177;50.844;4.412;2023-03-16T03:08:10;8.57;;;2.77;;
27796;SDS011;15177;50.844;4.412;2023-03-16T03:10:38;7.97;;;2.67;;
27796;SDS011;15177;50.844;4.412;2023-03-16T03:13:04;10.90;;;2.63;;
27796;SDS011;15177;50.844;4.412;2023-03-16T03:15:34;7.33;;;2.83;;
27796;SDS011;15177;50.844;4.412;2023-03-16T03:18:00;8.43;;;2.60;;
27796;SDS011;15177;50.844;4.412;2023-03-16T03:20:26;9.70;;;2.80;;
27796;SDS011;15177;50.844;4.412;2023-03-16T03:22:56;6.77;;;2.70;;
27796;SDS011;15177;50.844;4.412;2023-03-16T03:25:23;6.90;;;2.30;;
27796;SDS011;15177;50.844;4.412;2023-03-16T03:27:57;12.40;;;2.87;;
27796;SDS011;15177;50.844;4.412;2023-03-16T03:30:26;6.33;;;2.70;;
27796;SDS011;15177;50.844;4.412;2023-03-16T03:32:53;9.17;;;2.70;;
27796;SDS011;15177;50.844;4.412;2023-03-16T03:35:19;10.20;;;2.63;;
27796;SDS011;15177;50.844;4.412;2023-03-16T03:37:45;5.57;;;2.50;;
27796;SDS011;15177;50.844;4.412;2023-03-16T03:40:18;4.70;;;1.80;;
27796;SDS011;15177;50.844;4.412;2023-03-16T03:42:44;5.57;;;2.27;;
27796;SDS011;15177;50.844;4.412;2023-03-16T03:45:11;7.30;;;3.10;;
27796;SDS011;15177;50.844;4.412;2023-03-16T03:47:37;5.87;;;2.07;;
27796;SDS011;15177;50.844;4.412;2023-03-16T03:50:08;8.97;;;2.33;;
27796;SDS011;15177;50.844;4.412;2023-03-16T03:52:36;8.00;;;2.03;;
27796;SDS011;15177;50.844;4.412;2023-03-16T03:55:05;7.83;;;2.40;;
27796;SDS011;15177;50.844;4.412;2023-03-16T03:57:33;5.97;;;2.47;;
27796;SDS011;15177;50.844;4.412;2023-03-16T03:59:58;6.77;;;2.77;;
27796;SDS011;15177;50.844;4.412;2023-03-16T04:02:26;6.30;;;1.80;;
27796;SDS011;15177;50.844;4.412;2023-03-16T04:04:51;7.70;;;2.03;;
27796;SDS011;15177;50.844;4.412;2023-03-16T04:07:24;6.60;;;2.13;;
27796;SDS011;15177;50.844;4.412;2023-03-16T04:09:50;4.17;;;2.00;;
27796;SDS011;15177;50.844;4.412;2023-03-16T04:12:15;6.33;;;2.03;;
27796;SDS011;15177;50.844;4.412;2023-03-16T04:14:41;6.03;;;2.23;;
27796;SDS011;15177;50.844;4.412;2023-03-16T04:17:07;4.93;;;1.90;;
27796;SDS011;15177;50.844;4.412;2023-03-16T04:19:33;7.63;;;2.10;;
27796;SDS011;15177;50.844;4.412;2023-03-16T04:21:59;5.43;;;1.93;;
27796;SDS011;15177;50.844;4.412;2023-03-16T04:24:24;3.40;;;2.00;;
27796;SDS011;15177;50.844;4.412;2023-03-16T04:26:50;4.57;;;2.50;;
27796;SDS011;15177;50.844;4.412;2023-03-16T04:29:18;6.03;;;2.50;;
27796;SDS011;15177;50.844;4.412;2023-03-16T04:31:44;7.40;;;2.10;;
27796;SDS011;15177;50.844;4.412;2023-03-16T04:34:10;3.43;;;1.87;;
27796;SDS011;15177;50.844;4.412;2023-03-16T04:36:37;5.63;;;1.93;;
27796;SDS011;15177;50.844;4.412;2023-03-16T04:39:04;6.83;;;2.10;;
27796;SDS011;15177;50.844;4.412;2023-03-16T04:41:30;6.67;;;2.17;;
27796;SDS011;15177;50.844;4.412;2023-03-16T04:43:56;10.23;;;2.43;;
27796;SDS011;15177;50.844;4.412;2023-03-16T04:46:24;9.37;;;2.30;;
27796;SDS011;15177;50.844;4.412;2023-03-16T04:48:50;5.27;;;2.00;;
27796;SDS011;15177;50.844;4.412;2023-03-16T04:51:16;7.10;;;2.03;;
27796;SDS011;15177;50.844;4.412;2023-03-16T04:53:49;8.83;;;2.50;;
27796;SDS011;15177;50.844;4.412;2023-03-16T04:56:17;10.67;;;2.07;;
27796;SDS011;15177;50.844;4.412;2023-03-16T04:58:44;5.90;;;2.20;;
27796;SDS011;15177;50.844;4.412;2023-03-16T05:01:17;7.27;;;2.27;;
27796;SDS011;15177;50.844;4.412;2023-03-16T05:03:49;6.70;;;2.10;;
27796;SDS011;15177;50.844;4.412;2023-03-16T05:06:17;6.07;;;2.57;;
27796;SDS011;15177;50.844;4.412;2023-03-16T05:08:43;3.40;;;2.20;;
27796;SDS011;15177;50.844;4.412;2023-03-16T05:11:08;4.80;;;2.37;;
27796;SDS011;15177;50.844;4.412;2023-03-16T05:13:34;5.93;;;2.40;;
27796;SDS011;15177;50.844;4.412;2023-03-16T05:16:00;6.50;;;2.40;;
27796;SDS011;15177;50.844;4.412;2023-03-16T05:18:26;6.47;;;2.30;;
27796;SDS011;15177;50.844;4.412;2023-03-16T05:20:52;6.03;;;2.40;;
27796;SDS011;15177;50.844;4.412;2023-03-16T05:23:20;9.23;;;2.43;;
27796;SDS011;15177;50.844;4.412;2023-03-16T05:25:46;5.40;;;1.93;;
27796;SDS011;15177;50.844;4.412;2023-03-16T05:28:13;8.93;;;2.20;;
27796;SDS011;15177;50.844;4.412;2023-03-16T05:30:39;6.30;;;2.13;;
27796;SDS011;15177;50.844;4.412;2023-03-16T05:33:13;7.60;;;1.80;;
27796;SDS011;15177;50.844;4.412;2023-03-16T05:35:38;7.10;;;2.30;;
27796;SDS011;15177;50.844;4.412;2023-03-16T05:38:04;6.83;;;2.23;;
27796;SDS011;15177;50.844;4.412;2023-03-16T05:40:30;8.03;;;1.97;;
27796;SDS011;15177;50.844;4.412;2023-03-16T05:42:56;4.50;;;2.17;;
27796;SDS011;15177;50.844;4.412;2023-03-16T05:45:24;9.87;;;2.50;;
27796;SDS011;15177;50.844;4.412;2023-03-16T05:47:50;6.03;;;1.77;;
27796;SDS011;15177;50.844;4.412;2023-03-16T05:50:17;5.70;;;2.10;;
27796;SDS011;15177;50.844;4.412;2023-03-16T05:52:44;8.43;;;2.43;;
27796;SDS011;15177;50.844;4.412;2023-03-16T05:55:12;4.47;;;1.90;;
27796;SDS011;15177;50.844;4.412;2023-03-16T05:57:41;9.20;;;2.07;;
27796;SDS011;15177;50.844;4.412;2023-03-16T06:00:10;6.10;;;2.20;;
27796;SDS011;15177;50.844;4.412;2023-03-16T06:02:44;6.27;;;2.07;;
27796;SDS011;15177;50.844;4.412;2023-03-16T06:05:11;6.33;;;2.00;;
27796;SDS011;15177;50.844;4.412;2023-03-16T06:07:38;5.97;;;2.10;;
27796;SDS011;15177;50.844;4.412;2023-03-16T06:10:04;6.63;;;1.80;;
27796;SDS011;15177;50.844;4.412;2023-03-16T06:12:37;6.27;;;1.80;;
27796;SDS011;15177;50.844;4.412;2023-03-16T06:15:05;7.13;;;1.97;;
27796;SDS011;15177;50.844;4.412;2023-03-16T06:17:31;5.37;;;1.80;;
27796;SDS011;15177;50.844;4.412;2023-03-16T06:19:58;9.77;;;2.47;;
27796;SDS011;15177;50.844;4.412;2023-03-16T06:22:23;6.37;;;1.87;;
27796;SDS011;15177;50.844;4.412;2023-03-16T06:24:50;4.57;;;1.77;;
27796;SDS011;15177;50.844;4.412;2023-03-16T06:27:16;8.50;;;2.47;;
27796;SDS011;15177;50.844;4.412;2023-03-16T06:29:44;3.47;;;1.73;;
27796;SDS011;15177;50.844;4.412;2023-03-16T06:32:12;9.33;;;2.10;;
27796;SDS011;15177;50.844;4.412;2023-03-16T06:34:40;7.10;;;1.70;;
27796;SDS011;15177;50.844;4.412;2023-03-16T06:37:06;10.03;;;2.03;;
27796;SDS011;15177;50.844;4.412;2023-03-16T06:39:32;4.87;;;1.80;;
27796;SDS011;15177;50.844;4.412;2023-03-16T06:42:07;8.37;;;2.13;;
27796;SDS011;15177;50.844;4.412;2023-03-16T06:44:32;13.00;;;3.17;;
27796;SDS011;15177;50.844;4.412;2023-03-16T06:47:03;3.73;;;2.03;;
27796;SDS011;15177;50.844;4.412;2023-03-16T06:49:29;8.07;;;1.83;;
27796;SDS011;15177;50.844;4.412;2023-03-16T06:52:05;3.13;;;1.57;;
27796;SDS011;15177;50.844;4.412;2023-03-16T06:55:07;3.30;;;1.40;;
27796;SDS011;15177;50.844;4.412;2023-03-16T06:57:52;4.60;;;1.83;;
27796;SDS011;15177;50.844;4.412;2023-03-16T07:01:03;7.30;;;2.37;;
27796;SDS011;15177;50.844;4.412;2023-03-16T07:03:38;6.53;;;1.87;;
27796;SDS011;15177;50.844;4.412;2023-03-16T07:06:04;4.07;;;2.10;;
27796;SDS011;15177;50.844;4.412;2023-03-16T07:08:31;5.37;;;1.97;;
27796;SDS011;15177;50.844;4.412;2023-03-16T07:10:57;8.27;;;2.00;;
27796;SDS011;15177;50.844;4.412;2023-03-16T07:13:23;4.90;;;2.00;;
27796;SDS011;15177;50.844;4.412;2023-03-16T07:15:51;2.43;;;1.30;;
27796;SDS011;15177;50.844;4.412;2023-03-16T07:18:20;7.83;;;2.13;;
27796;SDS011;15177;50.844;4.412;2023-03-16T07:20:46;8.63;;;1.80;;
27796;SDS011;15177;50.844;4.412;2023-03-16T07:23:12;6.80;;;1.97;;
27796;SDS011;15177;50.844;4.412;2023-03-16T07:25:38;3.47;;;1.50;;
27796;SDS011;15177;50.844;4.412;2023-03-16T07:28:05;7.70;;;1.97;;
27796;SDS011;15177;50.844;4.412;2023-03-16T07:30:31;4.40;;;1.40;;
27796;SDS011;15177;50.844;4.412;2023-03-16T07:33:06;5.30;;;1.73;;
27796;SDS011;15177;50.844;4.412;2023-03-16T07:35:33;4.07;;;1.50;;
27796;SDS011;15177;50.844;4.412;2023-03-16T07:37:59;5.30;;;1.80;;
27796;SDS011;15177;50.844;4.412;2023-03-16T07:40:25;7.15;;;1.83;;
27796;SDS011;15177;50.844;4.412;2023-03-16T07:42:51;5.50;;;2.05;;
27796;SDS011;15177;50.844;4.412;2023-03-16T07:45:17;3.35;;;1.30;;
27796;SDS011;15177;50.844;4.412;2023-03-16T07:47:42;4.50;;;1.33;;
27796;SDS011;15177;50.844;4.412;2023-03-16T07:50:10;3.47;;;1.58;;
27796;SDS011;15177;50.844;4.412;2023-03-16T07:52:40;3.97;;;1.88;;
27796;SDS011;15177;50.844;4.412;2023-03-16T07:55:06;4.72;;;1.77;;
27796;SDS011;15177;50.844;4.412;2023-03-16T07:57:38;4.60;;;1.85;;
27796;SDS011;15177;50.844;4.412;2023-03-16T08:00:07;5.53;;;1.63;;
27796;SDS011;15177;50.844;4.412;2023-03-16T08:02:34;6.15;;;1.80;;
27796;SDS011;15177;50.844;4.412;2023-03-16T08:05:00;5.15;;;1.35;;
27796;SDS011;15177;50.844;4.412;2023-03-16T08:07:27;3.90;;;1.80;;
27796;SDS011;15177;50.844;4.412;2023-03-16T08:10:01;4.65;;;1.73;;
27796;SDS011;15177;50.844;4.412;2023-03-16T08:12:31;7.75;;;1.77;;
27796;SDS011;15177;50.844;4.412;2023-03-16T08:14:57;4.35;;;2.00;;
27796;SDS011;15177;50.844;4.412;2023-03-16T08:17:23;5.68;;;1.10;;
27796;SDS011;15177;50.844;4.412;2023-03-16T08:19:50;3.05;;;1.40;;
27796;SDS011;15177;50.844;4.412;2023-03-16T08:22:16;10.30;;;1.98;;
27796;SDS011;15177;50.844;4.412;2023-03-16T08:24:49;5.75;;;1.70;;
27796;SDS011;15177;50.844;4.412;2023-03-16T08:27:16;5.80;;;1.85;;
27796;SDS011;15177;50.844;4.412;2023-03-16T08:29:51;4.20;;;1.83;;
27796;SDS011;15177;50.844;4.412;2023-03-16T08:32:18;6.95;;;1.70;;
27796;SDS011;15177;50.844;4.412;2023-03-16T08:34:47;5.38;;;1.50;;
27796;SDS011;15177;50.844;4.412;2023-03-16T08:37:27;2.65;;;1.63;;
27796;SDS011;15177;50.844;4.412;2023-03-16T08:39:54;5.22;;;1.48;;
27796;SDS011;15177;50.844;4.412;2023-03-16T08:42:21;2.92;;;1.20;;
27796;SDS011;15177;50.844;4.412;2023-03-16T08:44:51;3.10;;;1.38;;
27796;SDS011;15177;50.844;4.412;2023-03-16T08:47:23;4.10;;;1.58;;
27796;SDS011;15177;50.844;4.412;2023-03-16T08:50:08;6.93;;;1.90;;
27796;SDS011;15177;50.844;4.412;2023-03-16T08:52:37;6.53;;;1.42;;
27796;SDS011;15177;50.844;4.412;2023-03-16T08:55:04;6.10;;;1.40;;
27796;SDS011;15177;50.844;4.412;2023-03-16T08:57:31;2.65;;;1.25;;
27796;SDS011;15177;50.844;4.412;2023-03-16T09:00:04;5.38;;;1.60;;
27796;SDS011;15177;50.844;4.412;2023-03-16T09:02:45;2.83;;;1.38;;
27796;SDS011;15177;50.844;4.412;2023-03-16T09:05:28;3.03;;;1.58;;
27796;SDS011;15177;50.844;4.412;2023-03-16T09:07:54;5.45;;;1.30;;
27796;SDS011;15177;50.844;4.412;2023-03-16T09:10:20;5.88;;;1.55;;
27796;SDS011;15177;50.844;4.412;2023-03-16T09:13:21;5.05;;;1.50;;
27796;SDS011;15177;50.844;4.412;2023-03-16T09:15:53;5.35;;;1.35;;
27796;SDS011;15177;50.844;4.412;2023-03-16T09:18:19;4.63;;;1.70;;
27796;SDS011;15177;50.844;4.412;2023-03-16T09:20:48;8.25;;;1.55;;
27796;SDS011;15177;50.844;4.412;2023-03-16T09:23:20;4.50;;;1.67;;
27796;SDS011;15177;50.844;4.412;2023-03-16T09:25:45;8.15;;;2.00;;
27796;SDS011;15177;50.844;4.412;2023-03-16T09:28:14;3.35;;;1.50;;
27796;SDS011;15177;50.844;4.412;2023-03-16T09:30:42;4.10;;;1.75;;
27796;SDS011;15177;50.844;4.412;2023-03-16T09:33:09;3.33;;;1.40;;
27796;SDS011;15177;50.844;4.412;2023-03-16T09:35:34;6.50;;;1.83;;
27796;SDS011;15177;50.844;4.412;2023-03-16T09:38:02;2.70;;;1.30;;
27796;SDS011;15177;50.844;4.412;2023-03-16T09:40:28;5.15;;;2.03;;
27796;SDS011;15177;50.844;4.412;2023-03-16T09:43:05;7.15;;;1.77;;
27796;SDS011;15177;50.844;4.412;2023-03-16T09:48:41;2.03;;;1.42;;
27796;SDS011;15177;50.844;4.412;2023-03-16T09:51:15;2.80;;;1.40;;
27796;SDS011;15177;50.844;4.412;2023-03-16T09:54:04;4.28;;;1.35;;
27796;SDS011;15177;50.844;4.412;2023-03-16T09:56:47;3.67;;;1.08;;
27796;SDS011;15177;50.844;4.412;2023-03-16T09:59:18;3.53;;;1.08;;
27796;SDS011;15177;50.844;4.412;2023-03-16T10:12:41;5.68;;;1.30;;
27796;SDS011;15177;50.844;4.412;2023-03-16T10:15:15;5.07;;;1.38;;
27796;SDS011;15177;50.844;4.412;2023-03-16T10:20:34;5.78;;;1.40;;
27796;SDS011;15177;50.844;4.412;2023-03-16T10:28:21;2.03;;;0.98;;
27796;SDS011;15177;50.844;4.412;2023-03-16T10:31:08;2.92;;;1.13;;
27796;SDS011;15177;50.844;4.412;2023-03-16T10:33:42;4.50;;;0.98;;
27796;SDS011;15177;50.844;4.412;2023-03-16T10:38:57;5.45;;;1.40;;
27796;SDS011;15177;50.844;4.412;2023-03-16T10:41:36;3.63;;;1.15;;
27796;SDS011;15177;50.844;4.412;2023-03-16T10:49:38;3.10;;;1.13;;
27796;SDS011;15177;50.844;4.412;2023-03-16T10:52:21;4.38;;;1.35;;
27796;SDS011;15177;50.844;4.412;2023-03-16T10:57:31;5.22;;;1.17;;
27796;SDS011;15177;50.844;4.412;2023-03-16T10:59:59;4.07;;;1.63;;
27796;SDS011;15177;50.844;4.412;2023-03-16T11:02:52;3.90;;;1.15;;
27796;SDS011;15177;50.844;4.412;2023-03-16T11:05:28;5.55;;;1.38;;
27796;SDS011;15177;50.844;4.412;2023-03-16T11:10:57;4.30;;;0.90;;
27796;SDS011;15177;50.844;4.412;2023-03-16T11:13:34;2.20;;;1.00;;
27796;SDS011;15177;50.844;4.412;2023-03-16T11:16:30;2.95;;;1.23;;
27796;SDS011;15177;50.844;4.412;2023-03-16T11:19:05;6.20;;;1.40;;
27796;SDS011;15177;50.844;4.412;2023-03-16T11:24:23;3.30;;;0.90;;
27796;SDS011;15177;50.844;4.412;2023-03-16T11:27:01;2.08;;;1.10;;
27796;SDS011;15177;50.844;4.412;2023-03-16T11:32:11;3.60;;;1.08;;
27796;SDS011;15177;50.844;4.412;2023-03-16T11:34:42;6.03;;;1.10;;
27796;SDS011;15177;50.844;4.412;2023-03-16T11:40:08;5.65;;;1.02;;
27796;SDS011;15177;50.844;4.412;2023-03-16T11:51:04;5.13;;;0.90;;
27796;SDS011;15177;50.844;4.412;2023-03-16T11:53:49;1.92;;;1.00;;
27796;SDS011;15177;50.844;4.412;2023-03-16T11:58:59;4.15;;;1.17;;
27796;SDS011;15177;50.844;4.412;2023-03-16T12:01:39;4.03;;;1.45;;
27796;SDS011;15177;50.844;4.412;2023-03-16T12:20:57;3.22;;;1.02;;
27796;SDS011;15177;50.844;4.412;2023-03-16T12:23:32;1.42;;;0.98;;
27796;SDS011;15177;50.844;4.412;2023-03-16T12:26:07;4.85;;;1.15;;
27796;SDS011;15177;50.844;4.412;2023-03-16T12:28:50;4.90;;;1.05;;
27796;SDS011;15177;50.844;4.412;2023-03-16T12:34:05;5.15;;;1.05;;
27796;SDS011;15177;50.844;4.412;2023-03-16T12:37:05;2.10;;;1.00;;
27796;SDS011;15177;50.844;4.412;2023-03-16T12:42:31;2.65;;;1.00;;
27796;SDS011;15177;50.844;4.412;2023-03-16T12:45:02;1.77;;;0.80;;
27796;SDS011;15177;50.844;4.412;2023-03-16T12:47:46;4.90;;;0.80;;
27796;SDS011;15177;50.844;4.412;2023-03-16T12:50:24;3.42;;;1.27;;
27796;SDS011;15177;50.844;4.412;2023-03-16T12:52:52;3.63;;;0.85;;
27796;SDS011;15177;50.844;4.412;2023-03-16T12:58:03;4.05;;;0.95;;
27796;SDS011;15177;50.844;4.412;2023-03-16T13:00:36;3.45;;;1.08;;
27796;SDS011;15177;50.844;4.412;2023-03-16T13:03:23;3.63;;;0.77;;
27796;SDS011;15177;50.844;4.412;2023-03-16T13:05:57;3.10;;;0.90;;
27796;SDS011;15177;50.844;4.412;2023-03-16T13:11:12;1.67;;;1.13;;
27796;SDS011;15177;50.844;4.412;2023-03-16T13:16:27;2.65;;;1.00;;
27796;SDS011;15177;50.844;4.412;2023-03-16T13:18:57;1.73;;;0.82;;
27796;SDS011;15177;50.844;4.412;2023-03-16T13:26:53;4.00;;;1.10;;
27796;SDS011;15177;50.844;4.412;2023-03-16T13:29:35;4.63;;;1.20;;
27796;SDS011;15177;50.844;4.412;2023-03-16T13:32:01;1.50;;;0.88;;
27796;SDS011;15177;50.844;4.412;2023-03-16T13:34:43;3.22;;;0.82;;
27796;SDS011;15177;50.844;4.412;2023-03-16T13:37:14;3.58;;;1.02;;
27796;SDS011;15177;50.844;4.412;2023-03-16T13:39:53;2.60;;;0.90;;
27796;SDS011;15177;50.844;4.412;2023-03-16T13:42:24;2.75;;;1.00;;
27796;SDS011;15177;50.844;4.412;2023-03-16T13:44:53;3.75;;;0.82;;
27796;SDS011;15177;50.844;4.412;2023-03-16T13:47:20;3.72;;;1.10;;
27796;SDS011;15177;50.844;4.412;2023-03-16T13:49:55;3.08;;;1.30;;
27796;SDS011;15177;50.844;4.412;2023-03-16T13:52:24;2.30;;;1.10;;
27796;SDS011;15177;50.844;4.412;2023-03-16T13:54:55;3.20;;;0.95;;
27796;SDS011;15177;50.844;4.412;2023-03-16T13:57:23;5.55;;;1.20;;
27796;SDS011;15177;50.844;4.412;2023-03-16T14:03:33;2.55;;;1.13;;
27796;SDS011;15177;50.844;4.412;2023-03-16T14:06:51;6.15;;;1.23;;
27796;SDS011;15177;50.844;4.412;2023-03-16T14:09:28;3.38;;;1.10;;
27796;SDS011;15177;50.844;4.412;2023-03-16T14:16:05;3.42;;;1.27;;
27796;SDS011;15177;50.844;4.412;2023-03-16T14:18:42;3.20;;;0.80;;
27796;SDS011;15177;50.844;4.412;2023-03-16T14:21:30;1.40;;;1.00;;
27796;SDS011;15177;50.844;4.412;2023-03-16T14:24:03;1.45;;;1.00;;
27796;SDS011;15177;50.844;4.412;2023-03-16T14:26:40;3.53;;;1.40;;
27796;SDS011;15177;50.844;4.412;2023-03-16T14:31:48;5.22;;;1.45;;
27796;SDS011;15177;50.844;4.412;2023-03-16T14:34:25;4.38;;;1.05;;
27796;SDS011;15177;50.844;4.412;2023-03-16T14:42:30;3.72;;;0.90;;
27796;SDS011;15177;50.844;4.412;2023-03-16T14:45:02;4.40;;;0.98;;
27796;SDS011;15177;50.844;4.412;2023-03-16T14:47:36;4.22;;;1.05;;
27796;SDS011;15177;50.844;4.412;2023-03-16T14:50:06;3.78;;;0.70;;
27796;SDS011;15177;50.844;4.412;2023-03-16T14:52:38;4.07;;;1.00;;
27796;SDS011;15177;50.844;4.412;2023-03-16T14:55:36;2.40;;;0.93;;
27796;SDS011;15177;50.844;4.412;2023-03-16T14:57:55;3.28;;;1.17;;
27796;SDS011;15177;50.844;4.412;2023-03-16T15:00:21;2.88;;;0.98;;
27796;SDS011;15177;50.844;4.412;2023-03-16T15:02:55;3.97;;;1.13;;
27796;SDS011;15177;50.844;4.412;2023-03-16T15:05:29;6.85;;;2.03;;
27796;SDS011;15177;50.844;4.412;2023-03-16T15:08:04;5.90;;;1.55;;
27796;SDS011;15177;50.844;4.412;2023-03-16T15:10:34;5.35;;;1.35;;
27796;SDS011;15177;50.844;4.412;2023-03-16T15:13:11;2.95;;;1.15;;
27796;SDS011;15177;50.844;4.412;2023-03-16T15:15:41;3.20;;;1.05;;
27796;SDS011;15177;50.844;4.412;2023-03-16T15:18:08;8.32;;;1.67;;
27796;SDS011;15177;50.844;4.412;2023-03-16T15:20:35;7.25;;;1.20;;
27796;SDS011;15177;50.844;4.412;2023-03-16T15:23:05;2.90;;;1.10;;
27796;SDS011;15177;50.844;4.412;2023-03-16T15:25:35;4.95;;;1.55;;
27796;SDS011;15177;50.844;4.412;2023-03-16T15:28:12;24.38;;;3.80;;
27796;SDS011;15177;50.844;4.412;2023-03-16T15:30:48;5.05;;;1.23;;
27796;SDS011;15177;50.844;4.412;2023-03-16T15:33:16;3.28;;;1.10;;
27796;SDS011;15177;50.844;4.412;2023-03-16T15:35:44;3.17;;;1.00;;
27796;SDS011;15177;50.844;4.412;2023-03-16T15:38:34;3.50;;;1.10;;
27796;SDS011;15177;50.844;4.412;2023-03-16T15:41:00;5.45;;;1.10;;
27796;SDS011;15177;50.844;4.412;2023-03-16T15:43:33;5.47;;;1.27;;
27796;SDS011;15177;50.844;4.412;2023-03-16T15:45:58;1.50;;;1.00;;
27796;SDS011;15177;50.844;4.412;2023-03-16T15:48:24;4.63;;;1.20;;
27796;SDS011;15177;50.844;4.412;2023-03-16T15:50:51;7.15;;;1.45;;
27796;SDS011;15177;50.844;4.412;2023-03-16T15:56:27;3.22;;;1.20;;
27796;SDS011;15177;50.844;4.412;2023-03-16T15:58:56;3.58;;;1.15;;
27796;SDS011;15177;50.844;4.412;2023-03-16T16:01:26;2.53;;;1.48;;
27796;SDS011;15177;50.844;4.412;2023-03-16T16:04:02;2.55;;;1.05;;
27796;SDS011;15177;50.844;4.412;2023-03-16T16:06:29;4.35;;;1.20;;
27796;SDS011;15177;50.844;4.412;2023-03-16T16:08:55;2.90;;;0.90;;
27796;SDS011;15177;50.844;4.412;2023-03-16T16:11:23;3.50;;;1.20;;
27796;SDS011;15177;50.844;4.412;2023-03-16T16:13:51;3.58;;;1.35;;
27796;SDS011;15177;50.844;4.412;2023-03-16T16:16:25;1.80;;;1.00;;
27796;SDS011;15177;50.844;4.412;2023-03-16T16:18:52;4.35;;;1.30;;
27796;SDS011;15177;50.844;4.412;2023-03-16T16:21:20;4.40;;;1.48;;
27796;SDS011;15177;50.844;4.412;2023-03-16T16:23:50;2.63;;;0.95;;
27796;SDS011;15177;50.844;4.412;2023-03-16T16:28:49;3.33;;;1.15;;
27796;SDS011;15177;50.844;4.412;2023-03-16T16:31:15;1.98;;;1.17;;
27796;SDS011;15177;50.844;4.412;2023-03-16T16:33:41;2.60;;;1.13;;
27796;SDS011;15177;50.844;4.412;2023-03-16T16:36:14;3.90;;;1.42;;
27796;SDS011;15177;50.844;4.412;2023-03-16T16:38:49;3.80;;;0.70;;
27796;SDS011;15177;50.844;4.412;2023-03-16T16:41:22;2.13;;;0.95;;
27796;SDS011;15177;50.844;4.412;2023-03-16T16:43:51;4.40;;;0.90;;
27796;SDS011;15177;50.844;4.412;2023-03-16T16:46:19;4.82;;;1.00;;
27796;SDS011;15177;50.844;4.412;2023-03-16T16:48:47;3.40;;;1.10;;
27796;SDS011;15177;50.844;4.412;2023-03-16T16:51:21;5.07;;;1.13;;
27796;SDS011;15177;50.844;4.412;2023-03-16T16:53:49;4.28;;;1.02;;
27796;SDS011;15177;50.844;4.412;2023-03-16T16:56:17;7.38;;;1.20;;
27796;SDS011;15177;50.844;4.412;2023-03-16T16:58:48;2.38;;;1.10;;
27796;SDS011;15177;50.844;4.412;2023-03-16T17:01:18;3.08;;;1.33;;
27796;SDS011;15177;50.844;4.412;2023-03-16T17:03:53;6.88;;;1.30;;
27796;SDS011;15177;50.844;4.412;2023-03-16T17:06:19;3.28;;;1.20;;
27796;SDS011;15177;50.844;4.412;2023-03-16T17:08:46;1.77;;;1.10;;
27796;SDS011;15177;50.844;4.412;2023-03-16T17:11:17;3.45;;;1.77;;